Date,TemperatureHighF,TemperatureAvgF,TemperatureLowF,DewpointHighF,DewpointAvgF,DewpointLowF,HumidityHigh,HumidityAvg,HumidityLow,PressureMaxIn,PressureMinIn,WindSpeedMaxMPH,WindSpeedAvgMPH,GustSpeedMaxMPH,PrecipitationSumIn
2013-4-1,35.1,29.0,24.1,22.5,17.9,14.7,74,63,48,30.21,29.92,22,7,23,0.00
2013-4-2,37.9,30.1,23.5,21.6,18.4,16.2,75,62,43,30.35,30.21,16,5,17,0.00
2013-4-3,41.5,32.1,21.6,25.2,20.6,15.4,88,64,42,30.52,30.30,15,3,15,0.00
2013-4-4,54.0,40.6,29.8,38.5,29.5,22.3,75,65,50,30.29,29.97,23,6,24,0.00
2013-4-5,43.2,35.7,28.4,29.1,26.2,21.7,84,69,48,30.28,30.06,15,1,15,0.00
2013-4-6,57.0,44.0,30.0,48.6,37.2,26.6,93,78,55,30.20,29.54,25,9,26,0.04
2013-4-7,50.0,40.2,35.2,47.7,35.3,30.9,92,83,69,29.99,29.54,22,5,25,0.00
2013-4-8,45.7,39.5,35.6,43.0,36.6,30.7,95,89,80,30.04,29.69,21,6,24,0.39
2013-4-9,38.7,36.5,34.2,37.9,35.4,32.0,97,96,91,30.09,29.93,21,10,25,0.75
2013-4-10,37.0,33.9,31.5,34.7,32.1,30.0,96,93,82,30.16,29.96,23,6,26,0.81
2013-4-11,36.9,35.2,33.6,35.6,33.6,32.0,97,94,89,30.01,29.62,35,12,41,0.21
2013-4-12,38.7,34.6,32.7,36.1,33.3,31.1,97,95,88,29.80,29.56,13,5,16,0.07
2013-4-13,36.9,34.1,30.6,31.5,29.6,27.0,94,84,72,30.03,29.78,20,7,21,0.01
2013-4-14,49.8,36.3,29.3,45.1,33.3,27.0,94,89,85,30.06,29.61,27,8,29,0.04
2013-4-15,58.6,47.7,39.9,50.7,43.3,35.2,97,85,57,29.96,29.59,30,10,32,0.80
2013-4-16,49.8,40.7,33.1,39.7,34.1,29.8,88,78,59,30.33,29.95,15,4,18,0.00
2013-4-17,41.7,38.8,34.5,39.9,36.1,31.8,95,90,82,30.37,29.93,22,8,26,0.46
2013-4-18,52.0,42.8,39.6,51.4,41.7,35.4,100,96,85,29.95,29.32,34,9,38,0.37
2013-4-19,39.4,34.6,28.9,35.6,29.3,21.9,92,81,65,29.93,29.32,30,14,33,0.00
2013-4-20,43.2,33.4,25.5,26.8,21.5,14.5,82,64,33,30.44,29.93,22,4,23,0.00
2013-4-21,47.8,38.7,30.0,33.4,28.7,24.6,83,68,50,30.54,30.28,21,7,22,0.00
2013-4-22,65.7,51.3,41.4,46.2,38.8,32.5,78,63,44,30.30,30.01,19,8,22,0.00
2013-4-23,53.2,43.0,37.0,46.9,37.0,30.2,92,80,58,30.01,29.86,18,7,20,0.03
2013-4-24,51.6,41.8,32.0,33.8,28.7,23.4,83,62,36,30.05,29.98,20,6,22,0.00
2013-4-25,50.9,42.9,36.0,36.7,32.6,28.0,90,68,44,30.30,29.96,28,7,33,0.00
2013-4-26,68.4,53.6,36.3,48.6,40.3,30.2,84,62,45,30.30,30.12,32,8,32,0.00
2013-4-27,66.4,56.2,46.4,52.3,47.2,41.4,91,73,53,30.22,30.01,16,7,18,0.00
2013-4-28,71.4,57.7,40.5,49.5,44.1,37.6,92,64,37,30.01,29.77,13,3,16,0.00
2013-4-29,69.6,60.0,52.3,57.4,53.5,49.1,92,80,59,29.83,29.71,21,7,24,0.02
2013-4-30,85.5,70.2,58.5,64.6,57.1,52.2,92,67,34,29.84,29.64,31,13,33,0.19